Time,TemperatureF,DewpointF,PressureIn,WindDirection,WindDirectionDegrees,WindSpeedMPH,WindSpeedGustMPH,Humidity,HourlyPrecipIn,Conditions,Clouds,dailyrainin,SoftwareType,DateUTC
2014-08-27 00:43:00,62.0,51.0,29.92,NE,53,0.0,0.0,66,0.00,,,0.00,,2014-08-27 07:43:00,
2014-08-27 01:22:00,61.0,50.0,29.93,NE,53,0.0,0.0,68,0.00,,,0.00,,2014-08-27 08:22:00,
2014-08-27 01:52:00,60.0,50.0,29.93,NE,53,0.0,0.0,70,0.00,,,0.00,,2014-08-27 08:52:00,
2014-08-27 02:24:00,59.0,50.0,29.94,NE,54,0.0,0.0,71,0.00,,,0.00,,2014-08-27 09:24:00,
2014-08-27 03:13:00,58.0,50.0,29.94,NE,53,0.0,0.0,74,0.00,,,0.00,,2014-08-27 10:13:00,
2014-08-27 03:23:00,57.0,49.0,29.94,NE,53,0.0,0.0,75,0.00,,,0.00,,2014-08-27 10:23:00,
2014-08-27 03:53:00,57.0,50.0,29.94,NE,53,0.0,0.0,76,0.00,,,0.00,,2014-08-27 10:53:00,
2014-08-27 04:23:00,56.0,49.0,29.94,NE,53,0.0,0.0,78,0.00,,,0.00,,2014-08-27 11:23:00,
2014-08-27 04:43:00,56.0,50.0,29.94,NE,53,0.0,0.0,79,0.00,,,0.00,,2014-08-27 11:43:00,
2014-08-27 04:52:00,55.0,49.0,29.94,NE,54,0.0,0.0,79,0.00,,,0.00,,2014-08-27 11:52:00,
2014-08-27 05:42:00,55.0,49.0,29.95,NE,53,0.0,0.0,81,0.00,,,0.00,,2014-08-27 12:42:00,
2014-08-27 06:22:00,54.0,49.0,29.96,NE,53,0.0,0.0,82,0.00,,,0.00,,2014-08-27 13:22:00,
2014-08-27 06:52:00,53.0,48.0,29.96,NE,53,0.0,0.0,83,0.00,,,0.00,,2014-08-27 13:52:00,
2014-08-27 07:43:00,53.0,48.0,29.98,NE,53,0.0,0.0,84,0.00,,,0.00,,2014-08-27 14:43:00,
2014-08-27 08:44:00,56.0,51.0,29.98,NE,54,0.0,0.0,83,0.00,,,0.00,,2014-08-27 15:44:00,
2014-08-27 08:54:00,58.0,53.0,29.98,NE,53,0.0,0.0,82,0.00,,,0.00,,2014-08-27 15:54:00,
2014-08-27 09:23:00,62.0,54.0,29.98,NE,53,0.0,0.0,74,0.00,,,0.00,,2014-08-27 16:23:00,
2014-08-27 09:43:00,64.0,54.0,29.98,NE,54,0.0,0.0,70,0.00,,,0.00,,2014-08-27 16:43:00,
2014-08-27 09:54:00,66.0,53.0,29.99,East,92,0.0,1.0,63,0.00,,,0.00,,2014-08-27 16:54:00,
2014-08-27 10:23:00,71.0,53.0,29.99,South,184,0.0,1.0,53,0.00,,,0.00,,2014-08-27 17:23:00,
2014-08-27 10:53:00,75.0,54.0,29.98,South,175,0.0,0.0,48,0.00,,,0.00,,2014-08-27 17:53:00,
2014-08-27 11:22:00,79.0,55.0,29.97,South,184,0.0,0.0,43,0.00,,,0.00,,2014-08-27 18:22:00,
2014-08-27 11:53:00,82.0,55.0,29.96,NNW,336,0.0,0.0,40,0.00,,,0.00,,2014-08-27 18:53:00,
2014-08-27 12:22:00,86.0,53.0,29.95,SSE,161,0.0,1.0,32,0.00,,,0.00,,2014-08-27 19:22:00,
2014-08-27 12:53:00,88.0,54.0,29.94,South,169,1.0,5.0,31,0.00,,,0.00,,2014-08-27 19:53:00,
2014-08-27 13:23:00,91.0,52.0,29.93,SSE,148,0.0,3.0,27,0.00,,,0.00,,2014-08-27 20:23:00,
2014-08-27 13:52:00,93.0,54.0,29.93,NW,308,0.0,4.0,27,0.00,,,0.00,,2014-08-27 20:52:00,
2014-08-27 14:22:00,95.0,56.0,29.92,WSW,241,0.0,2.0,27,0.00,,,0.00,,2014-08-27 21:22:00,
2014-08-27 15:24:00,96.0,56.0,29.90,SSE,160,0.0,5.0,26,0.00,,,0.00,,2014-08-27 22:24:00,
2014-08-27 15:43:00,95.0,56.0,29.90,SSE,157,1.0,5.0,27,0.00,,,0.00,,2014-08-27 22:43:00,
2014-08-27 15:53:00,97.0,52.0,29.89,North,0,0.0,3.0,22,0.00,,,0.00,,2014-08-27 22:53:00,
2014-08-27 16:22:00,97.0,49.0,29.89,North,0,0.0,6.0,20,0.00,,,0.00,,2014-08-27 23:22:00,
2014-08-27 16:53:00,96.0,51.0,29.88,West,281,1.0,6.0,22,0.00,,,0.00,,2014-08-27 23:53:00,
2014-08-27 17:22:00,96.0,50.0,29.88,NNE,28,0.0,8.0,21,0.00,,,0.00,,2014-08-28 00:22:00,
2014-08-27 17:52:00,95.0,49.0,29.89,North,355,2.0,10.0,21,0.00,,,0.00,,2014-08-28 00:52:00,
2014-08-27 18:22:00,93.0,46.0,29.89,NW,314,0.0,5.0,20,0.00,,,0.00,,2014-08-28 01:22:00,
2014-08-27 18:43:00,92.0,48.0,29.89,North,5,0.0,4.0,22,0.00,,,0.00,,2014-08-28 01:43:00,
2014-08-27 19:22:00,90.0,48.0,29.89,NE,51,0.0,0.0,24,0.00,,,0.00,,2014-08-28 02:22:00,
2014-08-27 20:23:00,84.0,52.0,29.90,North,0,0.0,0.0,33,0.00,,,0.00,,2014-08-28 03:23:00,
2014-08-27 20:54:00,81.0,52.0,29.91,NW,323,0.0,0.0,36,0.00,,,0.00,,2014-08-28 03:54:00,
2014-08-27 21:24:00,75.0,52.0,29.93,NNW,334,0.0,0.0,44,0.00,,,0.00,,2014-08-28 04:24:00,